Time;durP1;ratioP1;P1;durP2;ratioP2;P2;SDS_P1;SDS_P2;PMS_P1;PMS_P2;Temp;Humidity;BMP_temperature;BMP_pressure;BME280_temperature;BME280_humidity;BME280_pressure;Samples;Min_cycle;Max_cycle;Signal;HPM_P1;HPM_P2
2021/05/26 00:02:18;;;;;;;5.60;1.20;;;;;;;;;;6147478;23;19997;-78
2021/05/26 00:05:04;;;;;;;3.90;1.38;;;;;;;;;;6148618;23;19998;-78
2021/05/26 00:07:49;;;;;;;1.58;1.13;;;;;;;;;;6146481;23;20385;-81
2021/05/26 00:10:34;;;;;;;3.10;1.00;;;;;;;;;;6147711;23;20307;-79
2021/05/26 00:13:20;;;;;;;3.80;1.13;;;;;;;;;;6147202;23;20005;-79
2021/05/26 00:16:06;;;;;;;4.50;1.30;;;;;;;;;;6148736;23;20033;-79
2021/05/26 00:18:51;;;;;;;6.15;1.48;;;;;;;;;;6146146;23;20021;-79
2021/05/26 00:21:37;;;;;;;3.00;1.20;;;;;;;;;;6169206;23;20031;-79
2021/05/26 00:24:22;;;;;;;2.30;1.10;;;;;;;;;;6147360;23;20024;-80
2021/05/26 00:27:07;;;;;;;2.55;1.60;;;;;;;;;;6147677;23;20418;-79
2021/05/26 00:29:52;;;;;;;2.67;1.30;;;;;;;;;;6143716;23;20001;-80
2021/05/26 00:32:38;;;;;;;5.15;1.20;;;;;;;;;;6148062;23;20002;-80
2021/05/26 00:35:23;;;;;;;4.43;1.30;;;;;;;;;;6146914;23;20005;-79
2021/05/26 00:38:09;;;;;;;2.22;1.30;;;;;;;;;;6127573;23;20048;-79
2021/05/26 00:40:54;;;;;;;3.25;1.20;;;;;;;;;;6147927;23;20001;-79
2021/05/26 00:43:39;;;;;;;4.80;1.30;;;;;;;;;;6146847;23;20005;-80
2021/05/26 00:46:26;;;;;;;3.60;1.42;;;;;;;;;;6169043;23;20053;-79
2021/05/26 00:49:11;;;;;;;2.42;1.17;;;;;;;;;;6146677;23;19997;-79
2021/05/26 00:51:57;;;;;;;2.50;1.20;;;;;;;;;;6147426;23;20645;-80
2021/05/26 00:54:42;;;;;;;5.00;1.55;;;;;;;;;;6167729;23;20381;-79
2021/05/26 00:57:27;;;;;;;3.83;1.33;;;;;;;;;;6168723;23;20322;-79
2021/05/26 01:00:13;;;;;;;4.57;1.50;;;;;;;;;;6146629;23;20012;-79
2021/05/26 01:02:58;;;;;;;5.88;1.45;;;;;;;;;;6147340;23;20001;-79
2021/05/26 01:05:44;;;;;;;3.25;1.45;;;;;;;;;;6146393;23;20006;-80
2021/05/26 01:08:29;;;;;;;4.95;1.40;;;;;;;;;;6147322;23;20005;-80
2021/05/26 01:11:14;;;;;;;4.43;1.58;;;;;;;;;;6166765;23;20076;-79
2021/05/26 01:14:00;;;;;;;8.77;2.35;;;;;;;;;;6148246;23;20024;-79
2021/05/26 01:16:45;;;;;;;3.83;1.73;;;;;;;;;;6146512;23;20494;-80
2021/05/26 01:19:30;;;;;;;2.90;1.27;;;;;;;;;;6147794;23;20099;-80
2021/05/26 01:22:16;;;;;;;6.70;1.30;;;;;;;;;;6165779;23;20009;-79
2021/05/26 01:25:01;;;;;;;2.33;0.90;;;;;;;;;;6147881;23;20077;-79
2021/05/26 01:27:47;;;;;;;3.83;1.20;;;;;;;;;;6147026;23;19997;-79
2021/05/26 01:30:32;;;;;;;5.90;1.25;;;;;;;;;;6145866;23;20033;-78
2021/05/26 01:33:18;;;;;;;5.18;1.20;;;;;;;;;;6147384;23;20068;-79
2021/05/26 01:36:03;;;;;;;2.72;1.10;;;;;;;;;;6146658;23;20300;-79
2021/05/26 01:38:48;;;;;;;6.80;1.70;;;;;;;;;;6147248;23;20431;-78
2021/05/26 01:41:34;;;;;;;3.03;1.17;;;;;;;;;;6146162;23;20096;-80
2021/05/26 01:44:22;;;;;;;3.72;1.00;;;;;;;;;;6147890;23;20509;-79
2021/05/26 01:47:08;;;;;;;3.03;1.10;;;;;;;;;;6167252;23;20394;-78
2021/05/26 01:49:53;;;;;;;5.60;1.35;;;;;;;;;;6168807;23;20005;-80
2021/05/26 01:52:38;;;;;;;2.97;1.15;;;;;;;;;;6146310;23;20253;-79
2021/05/26 01:55:23;;;;;;;2.53;0.85;;;;;;;;;;6147277;23;20343;-80
2021/05/26 01:58:08;;;;;;;4.55;1.05;;;;;;;;;;6147186;23;20043;-80
2021/05/26 02:00:53;;;;;;;5.68;1.35;;;;;;;;;;6147906;23;20387;-81
2021/05/26 02:03:40;;;;;;;2.42;1.17;;;;;;;;;;6146405;23;20436;-81
2021/05/26 02:06:25;;;;;;;3.13;1.13;;;;;;;;;;6147993;23;20088;-80
2021/05/26 02:09:10;;;;;;;4.40;1.20;;;;;;;;;;6146849;23;20536;-81
2021/05/26 02:15:01;;;;;;;3.85;1.10;;;;;;;;;;6147848;23;20005;-81
2021/05/26 02:17:46;;;;;;;3.53;1.27;;;;;;;;;;6146409;23;20315;-80
2021/05/26 02:20:31;;;;;;;2.45;1.00;;;;;;;;;;6169732;23;20029;-80
2021/05/26 02:23:16;;;;;;;4.65;1.30;;;;;;;;;;6148079;23;20393;-81
2021/05/26 02:26:02;;;;;;;1.63;0.90;;;;;;;;;;6170353;23;20624;-81
2021/05/26 02:28:47;;;;;;;3.20;1.13;;;;;;;;;;6148378;23;20074;-81
2021/05/26 02:31:32;;;;;;;2.95;0.95;;;;;;;;;;6149365;23;19997;-80
2021/05/26 02:34:17;;;;;;;3.13;0.98;;;;;;;;;;6168375;23;20449;-81
2021/05/26 02:37:03;;;;;;;3.20;1.50;;;;;;;;;;6149654;23;19997;-81
2021/05/26 02:39:49;;;;;;;4.47;1.27;;;;;;;;;;6147068;23;19993;-81
2021/05/26 02:42:34;;;;;;;8.35;1.52;;;;;;;;;;6169233;23;20057;-81
2021/05/26 02:45:19;;;;;;;3.35;0.95;;;;;;;;;;6148243;23;20037;-81
2021/05/26 02:48:04;;;;;;;2.60;1.20;;;;;;;;;;6149312;23;20035;-81
2021/05/26 02:50:50;;;;;;;5.32;1.85;;;;;;;;;;6148579;23;20010;-81
2021/05/26 02:53:35;;;;;;;5.03;1.15;;;;;;;;;;6147366;23;20004;-81
2021/05/26 02:56:20;;;;;;;5.25;1.55;;;;;;;;;;6149281;23;20004;-80
2021/05/26 02:59:07;;;;;;;4.13;1.40;;;;;;;;;;6148206;23;20001;-81
2021/05/26 03:01:52;;;;;;;4.30;1.20;;;;;;;;;;6148887;23;20088;-81
2021/05/26 03:04:37;;;;;;;4.38;1.30;;;;;;;;;;6147672;23;20513;-80
2021/05/26 03:07:23;;;;;;;4.45;1.13;;;;;;;;;;6148806;23;20503;-81
2021/05/26 03:10:09;;;;;;;3.25;1.15;;;;;;;;;;6147897;23;20001;-81
2021/05/26 03:12:55;;;;;;;6.72;1.88;;;;;;;;;;6149145;23;20004;-80
2021/05/26 03:15:40;;;;;;;4.65;1.30;;;;;;;;;;6147493;23;20357;-81
2021/05/26 03:18:25;;;;;;;2.22;1.20;;;;;;;;;;6148971;23;20010;-81
2021/05/26 03:21:11;;;;;;;4.70;1.30;;;;;;;;;;6147723;23;20002;-81
2021/05/26 03:23:56;;;;;;;2.88;1.30;;;;;;;;;;6148654;23;20002;-80
2021/05/26 03:26:41;;;;;;;4.63;1.02;;;;;;;;;;6147676;23;20032;-80
2021/05/26 03:29:26;;;;;;;4.35;1.20;;;;;;;;;;6148758;23;20004;-80
2021/05/26 03:32:12;;;;;;;3.55;1.23;;;;;;;;;;6168288;23;20024;-79
2021/05/26 03:34:57;;;;;;;6.22;1.70;;;;;;;;;;6148575;23;19997;-81
2021/05/26 03:37:43;;;;;;;4.65;1.70;;;;;;;;;;6148722;23;20303;-81
2021/05/26 03:40:28;;;;;;;5.15;1.50;;;;;;;;;;6147900;23;20005;-81
2021/05/26 03:43:13;;;;;;;4.47;1.60;;;;;;;;;;6148561;23;20017;-81
2021/05/26 03:45:59;;;;;;;3.72;1.20;;;;;;;;;;6147240;23;20347;-80
2021/05/26 03:48:44;;;;;;;3.20;1.40;;;;;;;;;;6148643;23;20039;-81
2021/05/26 03:51:29;;;;;;;3.30;1.35;;;;;;;;;;6146288;23;20016;-80
2021/05/26 03:54:14;;;;;;;4.80;1.30;;;;;;;;;;6148998;23;19997;-80
2021/05/26 03:57:01;;;;;;;4.78;1.40;;;;;;;;;;6147230;23;20671;-80
2021/05/26 03:59:46;;;;;;;3.85;1.23;;;;;;;;;;6148981;23;20064;-80
2021/05/26 04:02:31;;;;;;;2.55;1.20;;;;;;;;;;6147640;23;19997;-81
2021/05/26 04:05:16;;;;;;;3.08;1.52;;;;;;;;;;6151341;23;20008;-80
2021/05/26 04:08:02;;;;;;;5.28;1.58;;;;;;;;;;6146461;23;20330;-80
2021/05/26 04:10:48;;;;;;;5.03;1.85;;;;;;;;;;6147943;23;20005;-82
2021/05/26 04:13:33;;;;;;;4.57;1.55;;;;;;;;;;6147072;23;20056;-80
2021/05/26 04:16:18;;;;;;;6.07;1.35;;;;;;;;;;6148385;23;20022;-81
2021/05/26 04:19:04;;;;;;;4.93;1.50;;;;;;;;;;6167782;23;20013;-80
2021/05/26 04:21:49;;;;;;;4.28;1.23;;;;;;;;;;6169151;23;20010;-80
2021/05/26 04:24:35;;;;;;;4.43;1.70;;;;;;;;;;6168344;23;20005;-80
2021/05/26 04:27:20;;;;;;;5.32;1.65;;;;;;;;;;6147244;23;20009;-79
2021/05/26 04:30:05;;;;;;;5.90;1.50;;;;;;;;;;6169135;23;20079;-79
2021/05/26 04:32:51;;;;;;;2.47;1.20;;;;;;;;;;6167376;23;20012;-79
2021/05/26 04:35:36;;;;;;;4.35;1.35;;;;;;;;;;6148152;23;19997;-80
2021/05/26 04:38:21;;;;;;;5.07;1.35;;;;;;;;;;6167874;23;19998;-79
2021/05/26 04:41:06;;;;;;;4.00;1.50;;;;;;;;;;6168417;23;20068;-79
2021/05/26 04:43:51;;;;;;;5.57;1.70;;;;;;;;;;6126110;23;19997;-80
2021/05/26 04:46:37;;;;;;;4.30;1.48;;;;;;;;;;6148513;23;20032;-80
2021/05/26 04:49:22;;;;;;;2.65;1.10;;;;;;;;;;6147613;23;19994;-80
2021/05/26 04:52:08;;;;;;;3.08;1.17;;;;;;;;;;6148603;23;20001;-79
2021/05/26 04:54:53;;;;;;;4.95;1.27;;;;;;;;;;6147059;23;19994;-79
2021/05/26 04:57:38;;;;;;;3.97;1.85;;;;;;;;;;6148755;23;20374;-79
2021/05/26 05:00:23;;;;;;;5.45;1.73;;;;;;;;;;6147685;23;20001;-78
2021/05/26 05:03:09;;;;;;;6.72;1.75;;;;;;;;;;6148493;23;20122;-78
2021/05/26 05:05:54;;;;;;;5.28;1.48;;;;;;;;;;6147295;23;20002;-79
2021/05/26 05:08:39;;;;;;;5.20;1.60;;;;;;;;;;6169381;23;20006;-79
2021/05/26 05:11:24;;;;;;;5.97;1.85;;;;;;;;;;6149103;23;20001;-78
2021/05/26 05:14:10;;;;;;;3.42;1.70;;;;;;;;;;6147387;23;20009;-79
2021/05/26 05:16:55;;;;;;;3.78;1.95;;;;;;;;;;6148450;23;20036;-79
2021/05/26 05:19:40;;;;;;;7.63;1.60;;;;;;;;;;6146885;23;20525;-78
2021/05/26 05:22:25;;;;;;;6.43;2.00;;;;;;;;;;6148962;23;20081;-78
2021/05/26 05:25:11;;;;;;;8.65;1.85;;;;;;;;;;6168115;23;20804;-78
2021/05/26 05:27:57;;;;;;;5.22;1.60;;;;;;;;;;6148337;23;19998;-78
2021/05/26 05:30:42;;;;;;;3.38;1.30;;;;;;;;;;6147271;23;20076;-79
2021/05/26 05:33:28;;;;;;;6.65;1.77;;;;;;;;;;6148974;23;20002;-79
2021/05/26 05:36:13;;;;;;;6.03;1.17;;;;;;;;;;6147194;23;19998;-79
2021/05/26 05:38:58;;;;;;;5.00;1.55;;;;;;;;;;6148395;23;19998;-78
2021/05/26 05:41:45;;;;;;;7.13;1.73;;;;;;;;;;6146858;23;19998;-79
2021/05/26 05:44:30;;;;;;;4.65;1.80;;;;;;;;;;6147629;23;20330;-79
2021/05/26 05:47:15;;;;;;;6.28;1.60;;;;;;;;;;6147813;23;20056;-80
2021/05/26 05:50:01;;;;;;;5.18;1.92;;;;;;;;;;6149127;23;20001;-78
2021/05/26 05:52:49;;;;;;;4.43;1.70;;;;;;;;;;6147528;23;20028;-78
2021/05/26 05:55:35;;;;;;;3.35;1.60;;;;;;;;;;6150466;23;20459;-78
2021/05/26 05:58:24;;;;;;;6.00;1.83;;;;;;;;;;6129664;23;20064;-78
2021/05/26 06:01:09;;;;;;;2.80;1.20;;;;;;;;;;6170557;23;20089;-78
2021/05/26 06:03:54;;;;;;;5.65;1.77;;;;;;;;;;6150049;23;20304;-79
2021/05/26 06:06:39;;;;;;;6.97;1.75;;;;;;;;;;6147744;23;20337;-79
2021/05/26 06:09:24;;;;;;;5.32;1.60;;;;;;;;;;6149176;23;20375;-80
2021/05/26 06:12:10;;;;;;;5.10;1.35;;;;;;;;;;6169015;23;20002;-82
2021/05/26 06:14:55;;;;;;;10.65;4.25;;;;;;;;;;6153147;23;20307;-80
2021/05/26 06:17:40;;;;;;;10.45;5.47;;;;;;;;;;6149437;23;20001;-81
2021/05/26 06:20:25;;;;;;;4.32;2.10;;;;;;;;;;6129896;23;20021;-79
2021/05/26 06:23:10;;;;;;;7.38;2.13;;;;;;;;;;6148700;23;20658;-83
2021/05/26 06:25:56;;;;;;;5.95;2.05;;;;;;;;;;6147709;23;20464;-81
2021/05/26 06:28:41;;;;;;;3.20;1.60;;;;;;;;;;6148555;23;20005;-82
2021/05/26 06:31:26;;;;;;;4.40;1.45;;;;;;;;;;6151134;23;20326;-80
2021/05/26 06:34:12;;;;;;;6.75;1.73;;;;;;;;;;6138412;23;20005;-78
2021/05/26 06:36:57;;;;;;;5.28;1.65;;;;;;;;;;6148687;23;20047;-77
2021/05/26 06:39:42;;;;;;;5.80;2.17;;;;;;;;;;6148206;23;20457;-77
2021/05/26 06:42:28;;;;;;;10.45;5.30;;;;;;;;;;6128818;23;19997;-78
2021/05/26 06:45:13;;;;;;;13.13;5.20;;;;;;;;;;6169794;23;19997;-78
2021/05/26 06:47:58;;;;;;;7.95;2.50;;;;;;;;;;6126931;23;20025;-78
2021/05/26 06:50:43;;;;;;;5.20;1.75;;;;;;;;;;6170396;23;19997;-77
2021/05/26 06:53:30;;;;;;;6.43;2.13;;;;;;;;;;6148002;23;20032;-80
2021/05/26 06:56:15;;;;;;;5.32;1.90;;;;;;;;;;6148949;23;19997;-78
2021/05/26 06:59:01;;;;;;;6.47;1.73;;;;;;;;;;6168817;23;20072;-79
2021/05/26 07:01:46;;;;;;;4.00;1.52;;;;;;;;;;6149320;23;20080;-78
2021/05/26 07:04:31;;;;;;;5.90;2.13;;;;;;;;;;6147844;23;20374;-78
2021/05/26 07:07:17;;;;;;;3.65;1.88;;;;;;;;;;6149786;23;20009;-77
2021/05/26 07:10:02;;;;;;;8.25;2.25;;;;;;;;;;6148397;23;20033;-77
2021/05/26 07:12:49;;;;;;;8.30;2.63;;;;;;;;;;6148803;23;20025;-79
2021/05/26 07:15:35;;;;;;;5.10;2.00;;;;;;;;;;6147859;23;19998;-77
2021/05/26 07:18:21;;;;;;;9.57;1.88;;;;;;;;;;6149380;23;20009;-79
2021/05/26 07:21:07;;;;;;;5.15;2.05;;;;;;;;;;6148359;23;20004;-77
2021/05/26 07:23:52;;;;;;;5.88;1.92;;;;;;;;;;6149443;23;20006;-78
2021/05/26 07:26:38;;;;;;;7.45;3.35;;;;;;;;;;6150108;23;20469;-77
2021/05/26 07:29:23;;;;;;;11.00;3.03;;;;;;;;;;6148709;23;20029;-78
2021/05/26 07:32:08;;;;;;;6.32;3.05;;;;;;;;;;6148107;23;20049;-79
2021/05/26 07:34:53;;;;;;;7.97;2.38;;;;;;;;;;6148355;23;20040;-79
2021/05/26 07:37:39;;;;;;;6.53;2.25;;;;;;;;;;6149688;23;20001;-79
2021/05/26 07:40:25;;;;;;;5.82;1.98;;;;;;;;;;6148032;23;20044;-79
2021/05/26 07:43:10;;;;;;;8.98;2.22;;;;;;;;;;6169996;23;20013;-79
2021/05/26 07:45:55;;;;;;;5.82;1.98;;;;;;;;;;6148521;23;20008;-79
2021/05/26 07:48:40;;;;;;;9.13;3.17;;;;;;;;;;6148859;23;20005;-79
2021/05/26 07:51:33;;;;;;;9.00;2.20;;;;;;;;;;6147803;23;20013;-78
2021/05/26 07:54:18;;;;;;;7.47;2.50;;;;;;;;;;6149614;23;20491;-77
2021/05/26 07:57:05;;;;;;;6.78;2.03;;;;;;;;;;6148108;23;20473;-79
2021/05/26 07:59:50;;;;;;;6.60;2.20;;;;;;;;;;6149016;23;20270;-78
2021/05/26 08:02:38;;;;;;;8.52;3.00;;;;;;;;;;6147786;23;20060;-77
2021/05/26 08:05:24;;;;;;;10.90;2.35;;;;;;;;;;6148429;23;19998;-78
2021/05/26 08:08:09;;;;;;;7.90;2.83;;;;;;;;;;6149760;23;20006;-78
2021/05/26 08:10:54;;;;;;;11.38;2.88;;;;;;;;;;6169298;23;19998;-80
2021/05/26 08:13:40;;;;;;;6.88;2.17;;;;;;;;;;6149671;23;20016;-79
2021/05/26 08:16:25;;;;;;;7.05;1.88;;;;;;;;;;6147308;23;20001;-78
2021/05/26 08:19:10;;;;;;;4.50;2.20;;;;;;;;;;6148928;23;20014;-76
2021/05/26 08:21:56;;;;;;;7.15;2.20;;;;;;;;;;6147870;23;20080;-78
2021/05/26 08:24:41;;;;;;;8.63;2.65;;;;;;;;;;6148864;23;20001;-77
2021/05/26 08:27:26;;;;;;;8.88;2.38;;;;;;;;;;6147835;23;20005;-77
2021/05/26 08:30:12;;;;;;;4.28;1.95;;;;;;;;;;6148693;23;20001;-78
2021/05/26 08:32:57;;;;;;;8.57;1.77;;;;;;;;;;6167831;23;19997;-77
2021/05/26 08:35:42;;;;;;;10.68;5.53;;;;;;;;;;6148767;23;20045;-78
2021/05/26 08:38:27;;;;;;;8.45;2.97;;;;;;;;;;6146916;23;20076;-79
2021/05/26 08:41:12;;;;;;;7.65;2.75;;;;;;;;;;6149243;23;20076;-78
2021/05/26 08:43:58;;;;;;;6.55;2.10;;;;;;;;;;6147877;23;20009;-80
2021/05/26 08:46:43;;;;;;;6.72;2.20;;;;;;;;;;6169557;23;20001;-78
2021/05/26 08:49:29;;;;;;;7.63;2.25;;;;;;;;;;6147067;23;20001;-81
2021/05/26 08:52:15;;;;;;;6.88;2.60;;;;;;;;;;6148669;23;20033;-78
2021/05/26 08:55:01;;;;;;;8.07;2.13;;;;;;;;;;6148828;23;20001;-78
2021/05/26 08:57:46;;;;;;;9.35;2.22;;;;;;;;;;6147024;23;20001;-79
2021/05/26 09:00:32;;;;;;;7.22;2.20;;;;;;;;;;6128371;23;19998;-78
2021/05/26 09:03:17;;;;;;;7.53;1.88;;;;;;;;;;6146966;23;19997;-79
2021/05/26 09:06:09;;;;;;;9.35;2.30;;;;;;;;;;6128308;23;20009;-78
2021/05/26 09:08:54;;;;;;;5.43;2.38;;;;;;;;;;6146405;23;20002;-79
2021/05/26 09:11:43;;;;;;;7.05;2.35;;;;;;;;;;6148350;23;20009;-78
2021/05/26 09:14:36;;;;;;;6.93;2.38;;;;;;;;;;6167421;23;20004;-78
2021/05/26 09:17:21;;;;;;;5.05;2.25;;;;;;;;;;6148599;23;19997;-77
2021/05/26 09:20:10;;;;;;;7.03;2.28;;;;;;;;;;6167828;23;20065;-77
2021/05/26 09:23:07;;;;;;;8.55;2.33;;;;;;;;;;6148040;23;20044;-77
2021/05/26 09:25:55;;;;;;;8.43;2.47;;;;;;;;;;6142650;23;20008;-77
2021/05/26 09:28:40;;;;;;;8.48;2.50;;;;;;;;;;6147470;23;20006;-81
2021/05/26 09:31:29;;;;;;;12.85;4.97;;;;;;;;;;6171474;23;20056;-79
2021/05/26 09:34:33;;;;;;;6.47;2.50;;;;;;;;;;6150091;23;20002;-80
2021/05/26 09:37:18;;;;;;;6.60;2.20;;;;;;;;;;6144820;23;20052;-79
2021/05/26 09:40:07;;;;;;;6.00;1.85;;;;;;;;;;6150247;23;20063;-80
2021/05/26 09:42:53;;;;;;;5.70;2.00;;;;;;;;;;6149723;23;19997;-80
2021/05/26 09:45:38;;;;;;;6.32;1.80;;;;;;;;;;6146102;23;20015;-80
2021/05/26 09:48:23;;;;;;;6.05;2.00;;;;;;;;;;6150044;23;20119;-78
2021/05/26 09:51:09;;;;;;;6.68;1.48;;;;;;;;;;6146340;23;19997;-78
2021/05/26 09:54:17;;;;;;;4.07;1.77;;;;;;;;;;6145428;23;20410;-80
2021/05/26 09:57:05;;;;;;;7.88;1.83;;;;;;;;;;6148553;23;19997;-79
2021/05/26 09:59:51;;;;;;;10.13;1.90;;;;;;;;;;6166193;23;20008;-80
2021/05/26 10:02:36;;;;;;;4.75;1.45;;;;;;;;;;6148191;23;20012;-80
2021/05/26 10:05:22;;;;;;;5.32;1.40;;;;;;;;;;6149408;23;20002;-80
2021/05/26 10:08:12;;;;;;;1.95;1.30;;;;;;;;;;6149318;23;19998;-80
2021/05/26 10:10:58;;;;;;;2.25;1.27;;;;;;;;;;6149051;23;20008;-79
2021/05/26 10:13:45;;;;;;;5.75;1.50;;;;;;;;;;6150760;23;20006;-79
2021/05/26 10:16:32;;;;;;;2.00;0.90;;;;;;;;;;6149166;23;20009;-79
2021/05/26 10:19:17;;;;;;;2.60;0.90;;;;;;;;;;6150876;23;20017;-80
2021/05/26 10:22:03;;;;;;;3.33;1.30;;;;;;;;;;6171236;23;20080;-84
2021/05/26 10:24:49;;;;;;;4.38;1.02;;;;;;;;;;6151104;23;20002;-82
2021/05/26 10:27:35;;;;;;;1.67;1.08;;;;;;;;;;6148423;23;20475;-83
2021/05/26 10:30:24;;;;;;;2.03;1.00;;;;;;;;;;6151518;23;20009;-82
2021/05/26 10:33:10;;;;;;;3.88;0.82;;;;;;;;;;6170908;23;20005;-82
2021/05/26 10:35:58;;;;;;;3.45;1.30;;;;;;;;;;6151466;23;20004;-81
2021/05/26 10:38:58;;;;;;;3.03;1.05;;;;;;;;;;6170492;23;20024;-83
2021/05/26 10:41:50;;;;;;;2.65;0.90;;;;;;;;;;6170294;23;20001;-83
2021/05/26 10:44:55;;;;;;;2.63;1.33;;;;;;;;;;6166489;23;20008;-82
2021/05/26 10:47:45;;;;;;;2.67;1.45;;;;;;;;;;6167173;23;19997;-83
2021/05/26 10:50:52;;;;;;;5.30;1.52;;;;;;;;;;6166735;23;19997;-83
2021/05/26 10:53:38;;;;;;;3.58;1.40;;;;;;;;;;6147504;23;19997;-83
2021/05/26 10:56:37;;;;;;;4.10;1.38;;;;;;;;;;6148502;23;19997;-83
2021/05/26 10:59:22;;;;;;;1.10;0.85;;;;;;;;;;6148778;23;20381;-83
2021/05/26 11:02:10;;;;;;;2.20;1.10;;;;;;;;;;6170530;23;20136;-80
2021/05/26 11:05:16;;;;;;;4.60;1.45;;;;;;;;;;6149284;23;20002;-79
2021/05/26 11:08:21;;;;;;;2.90;1.15;;;;;;;;;;6147366;23;20073;-80
2021/05/26 11:11:22;;;;;;;1.85;1.10;;;;;;;;;;6147351;23;20006;-80
2021/05/26 11:14:09;;;;;;;2.58;1.42;;;;;;;;;;6148135;23;20119;-80
2021/05/26 11:16:54;;;;;;;4.75;1.30;;;;;;;;;;6148986;23;19997;-79
2021/05/26 11:19:39;;;;;;;2.47;0.90;;;;;;;;;;6169178;23;20358;-80
2021/05/26 11:22:24;;;;;;;3.25;1.17;;;;;;;;;;6144370;23;19998;-79
2021/05/26 11:25:10;;;;;;;1.48;1.10;;;;;;;;;;6146063;23;20052;-81
2021/05/26 11:27:57;;;;;;;3.60;1.10;;;;;;;;;;6135977;23;20008;-81
2021/05/26 11:30:42;;;;;;;3.22;1.10;;;;;;;;;;6165818;23;20367;-82
2021/05/26 11:33:27;;;;;;;2.58;1.23;;;;;;;;;;6126856;23;20124;-81
2021/05/26 11:36:14;;;;;;;4.72;1.80;;;;;;;;;;6166915;23;19997;-81
2021/05/26 11:39:14;;;;;;;2.38;1.30;;;;;;;;;;6146874;23;20009;-81
2021/05/26 11:42:12;;;;;;;3.60;1.45;;;;;;;;;;6170781;23;20005;-81
2021/05/26 11:44:58;;;;;;;3.03;1.33;;;;;;;;;;6147695;23;20011;-81
2021/05/26 11:47:47;;;;;;;3.92;1.20;;;;;;;;;;6147151;23;20002;-80
2021/05/26 11:50:33;;;;;;;4.30;1.30;;;;;;;;;;6160826;23;20001;-81
2021/05/26 11:53:18;;;;;;;2.15;1.13;;;;;;;;;;6144970;23;20429;-80
2021/05/26 11:56:03;;;;;;;3.45;1.30;;;;;;;;;;6144347;23;20409;-80
2021/05/26 11:58:49;;;;;;;1.85;0.90;;;;;;;;;;6145422;23;19993;-81
2021/05/26 12:01:34;;;;;;;4.05;1.15;;;;;;;;;;6167938;23;20080;-79
2021/05/26 12:04:21;;;;;;;4.65;1.13;;;;;;;;;;6149486;23;20012;-80
2021/05/26 12:07:07;;;;;;;1.92;1.20;;;;;;;;;;6168091;23;20386;-78
2021/05/26 12:09:57;;;;;;;3.97;1.23;;;;;;;;;;6169236;23;19993;-78
2021/05/26 12:12:42;;;;;;;1.30;1.00;;;;;;;;;;6167501;23;20001;-79
2021/05/26 12:15:28;;;;;;;2.83;1.70;;;;;;;;;;6147836;23;20001;-80
2021/05/26 12:18:13;;;;;;;4.40;1.50;;;;;;;;;;6146276;23;20511;-79
2021/05/26 12:20:58;;;;;;;3.17;1.40;;;;;;;;;;6147405;23;20442;-80
2021/05/26 12:23:45;;;;;;;4.07;1.30;;;;;;;;;;6148571;23;20066;-80
2021/05/26 12:26:32;;;;;;;3.50;1.52;;;;;;;;;;6144101;23;20006;-79
2021/05/26 12:29:23;;;;;;;1.85;1.20;;;;;;;;;;6146291;23;20405;-81
2021/05/26 12:32:23;;;;;;;5.63;1.60;;;;;;;;;;6164223;23;20334;-80
2021/05/26 12:35:12;;;;;;;3.10;1.67;;;;;;;;;;6148759;23;20004;-79
2021/05/26 12:37:58;;;;;;;4.35;1.30;;;;;;;;;;6144281;23;20077;-80
2021/05/26 12:40:43;;;;;;;1.98;1.10;;;;;;;;;;6146477;23;20056;-81
2021/05/26 12:43:30;;;;;;;3.22;1.00;;;;;;;;;;6167785;23;20076;-81
2021/05/26 12:46:34;;;;;;;1.98;1.15;;;;;;;;;;6149934;23;20005;-82
2021/05/26 12:49:29;;;;;;;6.90;1.73;;;;;;;;;;6126542;23;20006;-83
2021/05/26 12:52:27;;;;;;;6.13;1.42;;;;;;;;;;6167901;23;20002;-83
2021/05/26 12:55:14;;;;;;;5.97;1.30;;;;;;;;;;6149241;23;19997;-83
2021/05/26 12:58:00;;;;;;;1.27;1.00;;;;;;;;;;6172153;23;20001;-84
2021/05/26 13:00:48;;;;;;;1.83;1.35;;;;;;;;;;6169702;23;20322;-81
2021/05/26 13:03:34;;;;;;;15.50;9.75;;;;;;;;;;6168144;23;20059;-81
2021/05/26 13:06:20;;;;;;;2.25;1.00;;;;;;;;;;6171669;23;20014;-82
2021/05/26 13:09:06;;;;;;;2.60;1.10;;;;;;;;;;6146136;23;20005;-81
2021/05/26 13:11:52;;;;;;;2.00;1.20;;;;;;;;;;6170015;23;20029;-80
2021/05/26 13:14:37;;;;;;;1.63;1.20;;;;;;;;;;6147556;23;20077;-81
2021/05/26 13:17:27;;;;;;;3.05;1.30;;;;;;;;;;6149153;23;20397;-82
2021/05/26 13:20:17;;;;;;;1.35;1.02;;;;;;;;;;6148878;23;20445;-83
2021/05/26 13:23:02;;;;;;;;;;;;;;;;;;6148515;23;19998;-80
2021/05/26 13:25:52;;;;;;;2.30;1.10;;;;;;;;;;6128343;23;19901;-79
2021/05/26 13:28:39;;;;;;;;;;;;;;;;;;6168805;23;19997;-80
2021/05/26 13:31:24;;;;;;;2.58;1.33;;;;;;;;;;6169966;23;19974;-82
2021/05/26 13:34:09;;;;;;;5.13;1.58;;;;;;;;;;6171023;23;20141;-84
2021/05/26 13:36:54;;;;;;;2.67;1.20;;;;;;;;;;6148195;23;20457;-82
2021/05/26 13:39:40;;;;;;;2.50;1.38;;;;;;;;;;6146994;23;20588;-82
2021/05/26 13:42:25;;;;;;;2.97;1.50;;;;;;;;;;6149043;23;20005;-82
2021/05/26 13:45:11;;;;;;;1.92;1.10;;;;;;;;;;6147406;23;20072;-80
2021/05/26 13:47:56;;;;;;;4.53;1.35;;;;;;;;;;6149107;23;20032;-80
2021/05/26 13:50:42;;;;;;;2.15;1.40;;;;;;;;;;6147337;23;20474;-81
2021/05/26 13:53:27;;;;;;;4.45;1.35;;;;;;;;;;6148627;23;20310;-83
2021/05/26 13:56:12;;;;;;;4.93;2.20;;;;;;;;;;6166649;23;19997;-87
2021/05/26 13:58:57;;;;;;;9.32;4.68;;;;;;;;;;6150840;23;20025;-81
2021/05/26 14:01:43;;;;;;;2.33;1.05;;;;;;;;;;6148129;23;19994;-81
2021/05/26 14:04:28;;;;;;;2.63;1.52;;;;;;;;;;6148308;23;20009;-81
2021/05/26 14:07:13;;;;;;;2.47;1.02;;;;;;;;;;6144148;23;20787;-80
2021/05/26 14:09:58;;;;;;;2.90;1.42;;;;;;;;;;6167758;23;20350;-80
2021/05/26 14:12:44;;;;;;;4.72;1.30;;;;;;;;;;6147888;23;20037;-80
2021/05/26 14:15:30;;;;;;;3.05;1.30;;;;;;;;;;6149239;23;20320;-80
2021/05/26 14:18:15;;;;;;;2.75;1.20;;;;;;;;;;6148146;23;20430;-80
2021/05/26 14:21:01;;;;;;;3.22;1.33;;;;;;;;;;6151233;23;20005;-81
2021/05/26 14:23:46;;;;;;;1.73;1.00;;;;;;;;;;6152451;23;20005;-80
2021/05/26 14:26:31;;;;;;;2.80;1.30;;;;;;;;;;6148228;23;20454;-81
2021/05/26 14:29:16;;;;;;;1.45;1.00;;;;;;;;;;6150517;23;20084;-82
2021/05/26 14:32:01;;;;;;;4.00;1.23;;;;;;;;;;6170358;23;20002;-82
2021/05/26 14:34:48;;;;;;;2.72;1.88;;;;;;;;;;6170878;23;20056;-81
2021/05/26 14:37:41;;;;;;;5.82;3.08;;;;;;;;;;6169265;23;20367;-80
2021/05/26 14:40:26;;;;;;;2.35;1.67;;;;;;;;;;6174235;23;19994;-80
2021/05/26 14:43:20;;;;;;;7.20;1.75;;;;;;;;;;6148078;23;20010;-82
2021/05/26 14:46:05;;;;;;;3.22;1.00;;;;;;;;;;6149097;23;20134;-83
2021/05/26 14:48:53;;;;;;;2.63;1.30;;;;;;;;;;6145787;23;20001;-83
2021/05/26 14:51:38;;;;;;;3.28;1.60;;;;;;;;;;6148366;23;20036;-84
2021/05/26 14:54:23;;;;;;;3.20;1.30;;;;;;;;;;6146528;23;20036;-84
2021/05/26 14:57:09;;;;;;;5.28;1.60;;;;;;;;;;6148337;23;20097;-84
2021/05/26 14:59:54;;;;;;;1.42;1.20;;;;;;;;;;6169004;23;20338;-84
2021/05/26 15:02:39;;;;;;;2.92;1.27;;;;;;;;;;6146917;23;20433;-85
2021/05/26 15:05:25;;;;;;;3.20;1.30;;;;;;;;;;6150529;23;20502;-83
2021/05/26 15:08:10;;;;;;;2.85;1.20;;;;;;;;;;6169208;23;20441;-83
2021/05/26 15:11:00;;;;;;;2.70;1.00;;;;;;;;;;6172807;23;20087;-83
2021/05/26 15:13:47;;;;;;;2.30;1.20;;;;;;;;;;6148248;23;19998;-82
2021/05/26 15:16:32;;;;;;;2.13;0.95;;;;;;;;;;6149465;23;20464;-82
2021/05/26 15:19:18;;;;;;;2.65;1.13;;;;;;;;;;6165694;23;20450;-83
2021/05/26 15:22:03;;;;;;;2.55;1.30;;;;;;;;;;6168517;23;20056;-83
2021/05/26 15:24:48;;;;;;;2.85;1.30;;;;;;;;;;6148127;23;20045;-82
2021/05/26 15:27:33;;;;;;;1.95;0.90;;;;;;;;;;6149676;23;19997;-82
2021/05/26 15:30:18;;;;;;;4.10;2.28;;;;;;;;;;6147573;23;20434;-84
2021/05/26 15:33:04;;;;;;;3.53;1.20;;;;;;;;;;6148242;23;20005;-84
2021/05/26 15:35:49;;;;;;;3.17;1.00;;;;;;;;;;6154716;23;20002;-87
2021/05/26 15:38:35;;;;;;;6.00;1.00;;;;;;;;;;6173371;23;20245;-86
2021/05/26 15:41:20;;;;;;;1.95;1.10;;;;;;;;;;6152162;23;20018;-87
2021/05/26 15:44:06;;;;;;;1.92;1.08;;;;;;;;;;6148866;23;20013;-89
2021/05/26 15:46:52;;;;;;;5.85;2.38;;;;;;;;;;6153055;23;20438;-87
2021/05/26 15:49:37;;;;;;;2.03;1.30;;;;;;;;;;6153124;23;20005;-88
2021/05/26 15:52:22;;;;;;;1.88;0.85;;;;;;;;;;6173472;23;20005;-88
2021/05/26 15:55:09;;;;;;;1.23;1.05;;;;;;;;;;6152570;23;19997;-87
2021/05/26 15:57:54;;;;;;;3.83;1.13;;;;;;;;;;6152823;23;20002;-88
2021/05/26 16:00:39;;;;;;;3.05;1.10;;;;;;;;;;6152502;23;19997;-87
2021/05/26 16:03:25;;;;;;;2.08;0.90;;;;;;;;;;6153398;23;20020;-87
2021/05/26 16:06:10;;;;;;;1.60;1.00;;;;;;;;;;6151584;23;20005;-86
2021/05/26 16:08:58;;;;;;;1.65;0.82;;;;;;;;;;6151669;23;20084;-87
2021/05/26 16:11:51;;;;;;;11.80;1.40;;;;;;;;;;6172325;23;19997;-87
2021/05/26 16:15:15;;;;;;;4.30;1.65;;;;;;;;;;6118167;23;20011;-87
2021/05/26 16:18:00;;;;;;;1.63;0.93;;;;;;;;;;6148504;23;20378;-84
2021/05/26 16:20:45;;;;;;;1.75;1.00;;;;;;;;;;6171234;23;20001;-85
2021/05/26 16:23:32;;;;;;;1.42;0.95;;;;;;;;;;6172997;23;20040;-85
2021/05/26 16:26:21;;;;;;;2.20;1.20;;;;;;;;;;6150698;23;20084;-86
2021/05/26 16:29:06;;;;;;;1.48;1.00;;;;;;;;;;6151807;23;20460;-87
2021/05/26 16:31:53;;;;;;;4.68;2.00;;;;;;;;;;6152499;23;20430;-87
2021/05/26 16:34:38;;;;;;;2.00;1.15;;;;;;;;;;6152181;23;19998;-85
2021/05/26 16:37:24;;;;;;;1.70;1.05;;;;;;;;;;6145891;23;20001;-86
2021/05/26 16:40:10;;;;;;;1.60;1.00;;;;;;;;;;6151499;23;20451;-86
2021/05/26 16:42:55;;;;;;;1.13;1.00;;;;;;;;;;6169801;23;20418;-85